Time;durP1;ratioP1;P1;durP2;ratioP2;P2;SDS_P1;SDS_P2;PMS_P1;PMS_P2;Temp;Humidity;BMP_temperature;BMP_pressure;BME280_temperature;BME280_humidity;BME280_pressure;Samples;Min_cycle;Max_cycle;Signal;HPM_P1;HPM_P2
2023/03/09 00:00:33;;;;;;;39.13;19.85;;;1.20;99.90;;;;;;5082511;28;20036;-61
2023/03/09 00:02:58;;;;;;;59.55;30.23;;;1.20;99.90;;;;;;5082226;28;20050;-62
2023/03/09 00:05:24;;;;;;;90.97;42.03;;;1.20;99.90;;;;;;5084722;28;20059;-62
2023/03/09 00:07:51;;;;;;;103.65;47.70;;;1.20;99.90;;;;;;5071047;28;20115;-62
2023/03/09 00:10:17;;;;;;;93.97;42.85;;;1.20;99.90;;;;;;5081194;28;20483;-62
2023/03/09 00:12:43;;;;;;;71.13;33.80;;;1.20;99.90;;;;;;5079256;28;20106;-62
2023/03/09 00:15:09;;;;;;;48.15;23.17;;;1.10;99.90;;;;;;5065844;28;20032;-62
2023/03/09 00:17:35;;;;;;;40.58;20.15;;;1.10;99.90;;;;;;5076120;28;20382;-62
2023/03/09 00:20:17;;;;;;;30.65;14.13;;;1.10;99.90;;;;;;5080625;28;20062;-61
2023/03/09 00:22:53;;;;;;;27.67;13.43;;;1.10;99.90;;;;;;5081975;28;20083;-61
2023/03/09 00:25:21;;;;;;;30.02;13.55;;;1.10;99.90;;;;;;5083665;28;20046;-62
2023/03/09 00:27:49;;;;;;;31.17;14.18;;;1.10;99.90;;;;;;5077874;28;20051;-61
2023/03/09 00:30:16;;;;;;;28.85;14.57;;;1.10;99.90;;;;;;5078782;28;20032;-62
2023/03/09 00:32:42;;;;;;;33.67;16.80;;;1.10;99.90;;;;;;5074330;28;20041;-62
2023/03/09 00:35:08;;;;;;;31.35;15.88;;;1.10;99.90;;;;;;5079763;28;20048;-62
2023/03/09 00:37:34;;;;;;;30.27;14.57;;;1.00;99.90;;;;;;5075609;28;20298;-62
2023/03/09 00:40:00;;;;;;;28.23;14.70;;;1.00;99.90;;;;;;5071014;28;20039;-62
2023/03/09 00:42:26;;;;;;;30.98;14.05;;;1.00;99.90;;;;;;5064317;28;20554;-62
2023/03/09 00:44:52;;;;;;;31.30;13.80;;;1.00;99.90;;;;;;5078130;28;20072;-62
2023/03/09 00:47:21;;;;;;;31.80;14.98;;;1.00;99.90;;;;;;5079666;28;20097;-62
2023/03/09 00:49:47;;;;;;;34.22;14.73;;;1.00;99.90;;;;;;5084565;28;20127;-63
2023/03/09 00:52:12;;;;;;;28.25;13.70;;;1.00;99.90;;;;;;5082505;28;20550;-62
2023/03/09 00:54:38;;;;;;;26.58;13.50;;;1.00;99.90;;;;;;5083349;28;20040;-63
2023/03/09 00:57:03;;;;;;;27.77;13.93;;;1.00;99.90;;;;;;5072099;28;20056;-62
2023/03/09 00:59:29;;;;;;;30.33;13.43;;;1.00;99.90;;;;;;5080148;28;20047;-63
2023/03/09 01:01:55;;;;;;;26.85;13.23;;;1.00;99.90;;;;;;5072377;28;20446;-62
2023/03/09 01:04:20;;;;;;;25.35;12.90;;;1.00;99.90;;;;;;5080310;28;20071;-61
2023/03/09 01:06:46;;;;;;;27.23;12.50;;;0.90;99.90;;;;;;5081922;28;20574;-61
2023/03/09 01:09:11;;;;;;;25.30;12.23;;;0.90;99.90;;;;;;5081498;28;20067;-61
2023/03/09 01:11:37;;;;;;;26.42;12.07;;;1.00;99.90;;;;;;5080750;28;20047;-62
2023/03/09 01:14:03;;;;;;;22.52;11.32;;;0.90;99.90;;;;;;5084482;28;20425;-61
2023/03/09 01:16:29;;;;;;;21.70;11.18;;;0.90;99.90;;;;;;5082508;28;20047;-60
2023/03/09 01:18:54;;;;;;;24.50;11.10;;;0.90;99.90;;;;;;5073937;28;20129;-61
2023/03/09 01:21:20;;;;;;;22.15;11.95;;;0.90;99.90;;;;;;5076974;28;20050;-61
2023/03/09 01:23:46;;;;;;;20.63;10.48;;;0.90;99.90;;;;;;5082823;28;20068;-60
2023/03/09 01:26:12;;;;;;;21.75;10.77;;;0.80;99.90;;;;;;5080617;28;20052;-61
2023/03/09 01:28:38;;;;;;;22.83;11.90;;;0.80;99.90;;;;;;5082279;28;20036;-60
2023/03/09 01:31:12;;;;;;;26.98;12.45;;;0.80;99.90;;;;;;5080960;28;20090;-61
2023/03/09 01:33:38;;;;;;;22.67;11.98;;;0.80;99.90;;;;;;5072024;28;20054;-61
2023/03/09 01:36:08;;;;;;;24.35;12.25;;;0.80;99.90;;;;;;5083585;28;20530;-60
2023/03/09 01:38:34;;;;;;;20.67;11.18;;;0.80;99.90;;;;;;5080946;28;20044;-63
2023/03/09 01:41:00;;;;;;;21.17;11.70;;;0.80;99.90;;;;;;5079316;28;20046;-60
2023/03/09 01:43:39;;;;;;;21.35;11.02;;;0.80;99.90;;;;;;5077254;28;20131;-61
2023/03/09 01:46:20;;;;;;;23.77;11.85;;;0.80;99.90;;;;;;5077472;28;20579;-61
2023/03/09 01:48:55;;;;;;;21.23;11.43;;;0.70;99.90;;;;;;5070004;28;20036;-60
2023/03/09 01:51:26;;;;;;;26.30;11.75;;;0.70;99.90;;;;;;5083347;28;20032;-61
2023/03/09 01:53:52;;;;;;;25.60;11.25;;;0.70;99.90;;;;;;5081790;28;20481;-61
2023/03/09 01:56:20;;;;;;;21.88;11.55;;;0.60;99.90;;;;;;5078441;28;20131;-61
2023/03/09 01:58:48;;;;;;;24.42;11.60;;;0.60;99.90;;;;;;5078067;28;20495;-61
2023/03/09 02:01:15;;;;;;;23.30;12.07;;;0.50;99.90;;;;;;5080770;28;20286;-61
2023/03/09 02:03:44;;;;;;;25.17;11.77;;;0.50;99.90;;;;;;5080877;28;20090;-60
2023/03/09 02:06:16;;;;;;;23.88;11.18;;;0.50;99.90;;;;;;5084014;28;20054;-62
2023/03/09 02:09:00;;;;;;;24.70;12.40;;;0.50;99.90;;;;;;5077947;28;20036;-61
2023/03/09 02:11:26;;;;;;;26.20;12.52;;;0.40;99.90;;;;;;5072872;28;20690;-61
2023/03/09 02:13:53;;;;;;;25.60;11.90;;;0.40;99.90;;;;;;5077858;28;20259;-62
2023/03/09 02:16:18;;;;;;;23.95;12.07;;;0.40;99.90;;;;;;5081005;28;20035;-62
2023/03/09 02:18:44;;;;;;;27.17;12.43;;;0.40;99.90;;;;;;5063654;28;20038;-62
2023/03/09 02:21:49;;;;;;;25.25;12.85;;;0.30;99.90;;;;;;5082426;28;20048;-62
2023/03/09 02:24:33;;;;;;;26.88;12.98;;;0.30;99.90;;;;;;5018306;28;20139;-62
2023/03/09 02:27:02;;;;;;;26.25;13.07;;;0.30;99.90;;;;;;5079970;28;20044;-62
2023/03/09 02:29:29;;;;;;;25.23;13.10;;;0.30;99.90;;;;;;5079317;28;20036;-63
2023/03/09 02:31:55;;;;;;;27.50;13.70;;;0.30;99.90;;;;;;5054671;28;20058;-62
2023/03/09 02:34:20;;;;;;;28.35;13.30;;;0.30;99.90;;;;;;5080018;28;20039;-62
2023/03/09 02:36:46;;;;;;;28.17;13.52;;;0.30;99.90;;;;;;5081367;28;20039;-62
2023/03/09 02:39:38;;;;;;;30.27;15.18;;;0.30;99.90;;;;;;5079000;28;20412;-62
2023/03/09 02:42:05;;;;;;;32.45;16.35;;;0.30;99.90;;;;;;5069705;28;20102;-62
2023/03/09 02:44:32;;;;;;;34.60;17.35;;;0.30;99.90;;;;;;5078587;28;20127;-61
2023/03/09 02:47:01;;;;;;;33.45;17.25;;;0.30;99.90;;;;;;5074430;28;20120;-63
2023/03/09 02:49:26;;;;;;;36.20;18.55;;;0.30;99.90;;;;;;5081228;28;20048;-62
2023/03/09 02:51:52;;;;;;;40.58;18.83;;;0.30;99.90;;;;;;5070639;28;20644;-63
2023/03/09 02:54:17;;;;;;;34.33;17.10;;;0.30;99.90;;;;;;5082323;28;20050;-63
2023/03/09 02:56:43;;;;;;;38.05;16.83;;;0.30;99.90;;;;;;5083116;28;20082;-62
2023/03/09 02:59:08;;;;;;;35.55;16.80;;;0.30;99.90;;;;;;5085723;28;20069;-63
2023/03/09 03:01:34;;;;;;;31.95;16.60;;;0.30;99.90;;;;;;5078656;28;20050;-62
2023/03/09 03:04:00;;;;;;;33.00;17.08;;;0.30;99.90;;;;;;5068077;28;20068;-62
2023/03/09 03:06:25;;;;;;;36.85;17.38;;;0.30;99.90;;;;;;5065002;28;20041;-62
2023/03/09 03:08:51;;;;;;;36.92;18.25;;;0.40;99.90;;;;;;5065151;28;20097;-63
2023/03/09 03:11:16;;;;;;;37.00;18.33;;;0.40;99.90;;;;;;5068987;28;20035;-62
2023/03/09 03:13:42;;;;;;;35.67;17.42;;;0.40;99.90;;;;;;5085415;28;20043;-61
2023/03/09 03:16:07;;;;;;;35.95;16.67;;;0.40;99.90;;;;;;5069157;28;20453;-62
2023/03/09 03:18:33;;;;;;;37.78;17.67;;;0.40;99.90;;;;;;5065999;28;20044;-62
2023/03/09 03:20:59;;;;;;;32.10;16.23;;;0.40;99.90;;;;;;5065702;28;20123;-62
2023/03/09 03:23:24;;;;;;;31.25;16.25;;;0.40;99.90;;;;;;5064137;28;20055;-62
2023/03/09 03:25:51;;;;;;;35.78;17.52;;;0.50;99.90;;;;;;5065046;28;20036;-62
2023/03/09 03:28:16;;;;;;;31.20;15.38;;;0.50;99.90;;;;;;5065090;28;20128;-61
2023/03/09 03:30:42;;;;;;;36.15;16.65;;;0.50;99.90;;;;;;5077285;28;20075;-62
2023/03/09 03:33:07;;;;;;;36.90;18.00;;;0.50;99.90;;;;;;5074267;28;20040;-61
2023/03/09 03:35:33;;;;;;;35.20;16.83;;;0.50;99.90;;;;;;5064511;28;20956;-62
2023/03/09 03:37:59;;;;;;;37.97;17.40;;;0.50;99.90;;;;;;5064280;28;20036;-62
2023/03/09 03:40:26;;;;;;;37.58;17.02;;;0.50;99.90;;;;;;5063402;28;20725;-61
2023/03/09 03:42:51;;;;;;;37.45;17.98;;;0.50;99.90;;;;;;5079084;28;20051;-61
2023/03/09 03:45:17;;;;;;;36.50;17.50;;;0.50;99.90;;;;;;5076673;28;20094;-61
2023/03/09 03:47:42;;;;;;;37.00;17.67;;;0.50;99.90;;;;;;5064278;28;20086;-61
2023/03/09 03:50:09;;;;;;;40.25;19.20;;;0.50;99.90;;;;;;5065186;28;20158;-62
2023/03/09 03:52:34;;;;;;;34.80;17.35;;;0.50;99.90;;;;;;5065051;28;20508;-62
2023/03/09 03:55:00;;;;;;;40.50;18.90;;;0.50;99.90;;;;;;5067573;28;20071;-62
2023/03/09 03:57:25;;;;;;;36.95;17.40;;;0.50;99.90;;;;;;5079605;28;20044;-62
2023/03/09 03:59:51;;;;;;;37.50;18.00;;;0.50;99.90;;;;;;5081161;28;20040;-62
2023/03/09 04:02:16;;;;;;;38.85;18.60;;;0.50;99.90;;;;;;5082710;28;20038;-62
2023/03/09 04:04:42;;;;;;;40.70;19.90;;;0.50;99.90;;;;;;5084912;28;20038;-62
2023/03/09 04:07:07;;;;;;;38.58;17.75;;;0.60;99.90;;;;;;5085202;28;20510;-62
2023/03/09 04:09:33;;;;;;;40.88;19.35;;;0.60;99.90;;;;;;5071924;28;20048;-62
2023/03/09 04:11:59;;;;;;;39.67;18.73;;;0.60;99.90;;;;;;5078306;28;20481;-63
2023/03/09 04:14:24;;;;;;;38.60;18.25;;;0.60;99.90;;;;;;5084606;28;20098;-63
2023/03/09 04:16:50;;;;;;;40.90;19.40;;;0.60;99.90;;;;;;5084795;28;20115;-62
2023/03/09 04:19:16;;;;;;;40.05;20.02;;;0.60;99.90;;;;;;5084501;28;20062;-61
2023/03/09 04:21:41;;;;;;;42.08;19.38;;;0.60;99.90;;;;;;5072122;28;20124;-62
2023/03/09 04:24:07;;;;;;;45.72;20.45;;;0.60;99.90;;;;;;5082184;28;20137;-62
2023/03/09 04:26:32;;;;;;;47.28;20.77;;;0.50;99.90;;;;;;5075549;28;20071;-63
2023/03/09 04:28:58;;;;;;;49.33;21.92;;;0.50;99.90;;;;;;5083338;28;20036;-62
2023/03/09 04:31:24;;;;;;;44.03;21.05;;;0.50;99.90;;;;;;5082023;28;20047;-62
2023/03/09 04:33:49;;;;;;;42.80;20.50;;;0.50;99.90;;;;;;5070399;28;20043;-62
2023/03/09 04:36:15;;;;;;;51.58;21.98;;;0.50;99.90;;;;;;5076678;28;20037;-62
2023/03/09 04:38:40;;;;;;;53.97;22.85;;;0.50;99.90;;;;;;5078298;28;20558;-62
2023/03/09 04:41:06;;;;;;;51.22;21.15;;;0.50;99.90;;;;;;5082388;28;20028;-62
2023/03/09 04:43:31;;;;;;;48.72;21.30;;;0.50;99.90;;;;;;5085061;28;20039;-61
2023/03/09 04:45:57;;;;;;;54.25;22.23;;;0.50;99.90;;;;;;5071756;28;20123;-62
2023/03/09 04:48:23;;;;;;;51.55;23.60;;;0.50;99.90;;;;;;5077080;28;20070;-62
2023/03/09 04:50:48;;;;;;;54.15;24.08;;;0.50;99.90;;;;;;5082908;28;20070;-61
2023/03/09 04:53:14;;;;;;;48.55;20.70;;;0.50;99.90;;;;;;5081912;28;20052;-61
2023/03/09 04:55:39;;;;;;;48.85;20.73;;;0.40;99.90;;;;;;5083550;28;20502;-61
2023/03/09 04:58:05;;;;;;;49.13;21.65;;;0.40;99.90;;;;;;5079862;28;20091;-61
2023/03/09 05:00:32;;;;;;;43.80;19.75;;;0.40;99.90;;;;;;5077860;28;20054;-60
2023/03/09 05:02:58;;;;;;;45.03;19.65;;;0.40;99.90;;;;;;5071481;28;20067;-62
2023/03/09 05:05:24;;;;;;;48.38;20.35;;;0.40;99.90;;;;;;5078039;28;20051;-63
2023/03/09 05:07:50;;;;;;;42.47;19.35;;;0.40;99.90;;;;;;5082472;28;20040;-63
2023/03/09 05:10:15;;;;;;;42.00;17.95;;;0.40;99.90;;;;;;5068952;28;20047;-62
2023/03/09 05:12:41;;;;;;;40.42;17.08;;;0.40;99.90;;;;;;5072576;28;20139;-62
2023/03/09 05:15:08;;;;;;;39.65;16.77;;;0.40;99.90;;;;;;5076197;28;20039;-62
2023/03/09 05:17:34;;;;;;;35.85;17.17;;;0.40;99.90;;;;;;5080692;28;20463;-62
2023/03/09 05:19:59;;;;;;;33.75;16.88;;;0.40;99.90;;;;;;5083420;28;20075;-62
2023/03/09 05:22:25;;;;;;;34.22;16.58;;;0.40;99.90;;;;;;5081527;28;20047;-62
2023/03/09 05:24:50;;;;;;;41.85;16.67;;;0.30;99.90;;;;;;5082927;28;20609;-62
2023/03/09 05:27:16;;;;;;;36.05;15.98;;;0.40;99.90;;;;;;5073336;28;20470;-62
2023/03/09 05:29:42;;;;;;;34.03;15.77;;;0.40;99.90;;;;;;5082651;28;20025;-62
2023/03/09 05:32:08;;;;;;;31.17;14.40;;;0.30;99.90;;;;;;5080839;28;20075;-62
2023/03/09 05:34:34;;;;;;;37.35;16.38;;;0.40;99.90;;;;;;5082158;28;20100;-62
2023/03/09 05:37:00;;;;;;;32.38;16.10;;;0.40;99.90;;;;;;5082152;28;20072;-62
2023/03/09 05:39:26;;;;;;;37.30;15.57;;;0.40;99.90;;;;;;5076055;28;20090;-62
2023/03/09 05:41:51;;;;;;;29.88;16.50;;;0.40;99.90;;;;;;5072741;28;20079;-62
2023/03/09 05:44:17;;;;;;;32.88;15.63;;;0.40;99.90;;;;;;5079834;28;20040;-62
2023/03/09 05:46:42;;;;;;;41.83;18.13;;;0.40;99.90;;;;;;5070915;28;20380;-62
2023/03/09 05:49:09;;;;;;;36.28;17.75;;;0.40;99.90;;;;;;5081846;28;20503;-62
2023/03/09 05:51:35;;;;;;;41.20;18.50;;;0.40;99.90;;;;;;5081916;28;20403;-62
2023/03/09 05:54:00;;;;;;;43.47;20.83;;;0.40;99.90;;;;;;5081594;28;20039;-62
2023/03/09 05:56:26;;;;;;;43.55;19.90;;;0.40;99.90;;;;;;5076712;28;20658;-62
2023/03/09 05:58:53;;;;;;;41.47;20.10;;;0.40;99.90;;;;;;5074835;28;20518;-62
2023/03/09 06:01:21;;;;;;;40.35;20.30;;;0.40;99.90;;;;;;5063915;28;20086;-62
2023/03/09 06:03:48;;;;;;;46.17;21.00;;;0.40;99.90;;;;;;5078008;28;20032;-62
2023/03/09 06:06:14;;;;;;;44.13;21.60;;;0.40;99.90;;;;;;5081394;28;20059;-61
2023/03/09 06:08:40;;;;;;;40.80;20.27;;;0.40;99.90;;;;;;5079463;28;20117;-62
2023/03/09 06:11:06;;;;;;;41.35;21.08;;;0.40;99.90;;;;;;5058630;28;21289;-62
2023/03/09 06:13:31;;;;;;;40.38;20.25;;;0.50;99.90;;;;;;5071788;28;20058;-62
2023/03/09 06:15:57;;;;;;;43.63;20.80;;;0.40;99.90;;;;;;5068936;28;20040;-62
2023/03/09 06:18:23;;;;;;;42.50;21.35;;;0.40;99.90;;;;;;5078033;28;20123;-61
2023/03/09 06:20:49;;;;;;;45.97;21.92;;;0.40;99.90;;;;;;5083215;28;20115;-62
2023/03/09 06:23:15;;;;;;;43.00;21.52;;;0.40;99.90;;;;;;5082621;28;20420;-62
2023/03/09 06:25:40;;;;;;;43.58;21.85;;;0.50;99.90;;;;;;5078806;28;20040;-62
2023/03/09 06:28:06;;;;;;;39.30;20.30;;;0.50;99.90;;;;;;5086480;28;20428;-62
2023/03/09 06:30:32;;;;;;;41.30;21.77;;;0.50;99.90;;;;;;5077382;28;20292;-62
2023/03/09 06:32:58;;;;;;;40.08;21.05;;;0.50;99.90;;;;;;5074839;28;20025;-62
2023/03/09 06:35:24;;;;;;;44.08;20.27;;;0.50;99.90;;;;;;5085927;28;20039;-61
2023/03/09 06:37:50;;;;;;;40.63;19.73;;;0.50;99.90;;;;;;5084681;28;20323;-62
2023/03/09 06:40:17;;;;;;;40.05;21.02;;;0.50;99.90;;;;;;5084374;28;20108;-62
2023/03/09 06:42:43;;;;;;;40.20;20.50;;;0.50;99.90;;;;;;5080075;28;20040;-62
2023/03/09 06:45:09;;;;;;;38.38;20.42;;;0.40;99.90;;;;;;5079628;28;20519;-63
2023/03/09 06:47:35;;;;;;;39.92;20.73;;;0.40;99.90;;;;;;5081084;28;20115;-63
2023/03/09 06:50:01;;;;;;;43.17;20.85;;;0.40;99.90;;;;;;5078418;28;20050;-63
2023/03/09 06:52:26;;;;;;;39.40;19.70;;;0.40;99.90;;;;;;5086251;28;20371;-63
2023/03/09 06:54:52;;;;;;;42.35;20.50;;;0.40;99.90;;;;;;5080824;28;20055;-63
2023/03/09 06:57:18;;;;;;;43.05;21.48;;;0.50;99.90;;;;;;5064541;28;20052;-63
2023/03/09 06:59:44;;;;;;;44.60;21.25;;;0.50;99.90;;;;;;5082147;28;20048;-63
2023/03/09 07:02:13;;;;;;;42.35;21.23;;;0.50;99.90;;;;;;5076720;28;20505;-63
2023/03/09 07:04:40;;;;;;;41.72;20.52;;;0.50;99.90;;;;;;5085960;28;20040;-61
2023/03/09 07:07:06;;;;;;;42.63;20.92;;;0.50;99.90;;;;;;5085248;28;20059;-63
2023/03/09 07:09:32;;;;;;;40.20;20.33;;;0.60;99.90;;;;;;5084994;28;20068;-63
2023/03/09 07:11:58;;;;;;;39.47;20.85;;;0.60;99.90;;;;;;5074239;28;20621;-63
2023/03/09 07:14:25;;;;;;;41.45;20.45;;;0.60;99.90;;;;;;5082118;28;20044;-63
2023/03/09 07:16:54;;;;;;;40.22;17.92;;;0.70;99.90;;;;;;5073754;28;20036;-63
2023/03/09 07:19:21;;;;;;;36.22;18.58;;;0.70;99.90;;;;;;5077625;28;20054;-62
2023/03/09 07:21:47;;;;;;;38.40;17.77;;;0.80;99.90;;;;;;5082964;28;20040;-61
2023/03/09 07:24:12;;;;;;;35.35;17.33;;;0.70;99.90;;;;;;5079218;28;20032;-62
2023/03/09 07:26:38;;;;;;;33.15;16.90;;;0.80;99.90;;;;;;5084337;28;20383;-62
2023/03/09 07:29:05;;;;;;;32.95;16.20;;;0.80;99.90;;;;;;5068082;28;20074;-62
2023/03/09 07:31:30;;;;;;;32.78;17.20;;;0.80;99.90;;;;;;5071313;28;20846;-62
2023/03/09 07:33:56;;;;;;;34.47;16.77;;;0.80;99.90;;;;;;5078272;28;20131;-63
2023/03/09 07:36:22;;;;;;;30.83;15.07;;;0.80;99.90;;;;;;5082983;28;20032;-62
2023/03/09 07:38:49;;;;;;;29.50;15.15;;;0.90;99.90;;;;;;5082664;28;20427;-61
2023/03/09 07:41:15;;;;;;;30.23;15.65;;;0.90;99.90;;;;;;5074091;28;20040;-61
2023/03/09 07:43:43;;;;;;;31.33;16.40;;;0.90;99.90;;;;;;5084534;28;20036;-62
2023/03/09 07:46:17;;;;;;;28.85;15.38;;;1.10;99.90;;;;;;5081580;28;20415;-63
2023/03/09 07:48:44;;;;;;;27.30;15.38;;;1.30;99.90;;;;;;5073828;28;20072;-62
2023/03/09 07:51:11;;;;;;;27.10;14.15;;;1.70;99.90;;;;;;5067574;28;20044;-62
2023/03/09 07:53:37;;;;;;;24.73;13.07;;;1.90;99.90;;;;;;5082483;28;20043;-62
2023/03/09 07:56:04;;;;;;;26.08;13.52;;;2.00;99.90;;;;;;5084359;28;20126;-60
2023/03/09 07:58:31;;;;;;;26.33;13.48;;;2.00;99.90;;;;;;5079319;28;20587;-61
2023/03/09 08:00:57;;;;;;;23.73;13.55;;;2.00;99.90;;;;;;5075650;28;20048;-61
2023/03/09 08:03:23;;;;;;;26.30;12.68;;;1.90;99.90;;;;;;5076527;28;20036;-62
2023/03/09 08:05:58;;;;;;;23.52;12.30;;;1.90;99.90;;;;;;5080924;28;20570;-62
2023/03/09 08:08:26;;;;;;;23.35;12.50;;;1.90;99.90;;;;;;5083556;28;20100;-63
2023/03/09 08:10:52;;;;;;;22.98;11.15;;;2.00;99.90;;;;;;5081547;28;20051;-61
2023/03/09 08:13:19;;;;;;;26.05;12.65;;;2.00;99.90;;;;;;5083763;28;20048;-61
2023/03/09 08:15:45;;;;;;;24.00;11.18;;;2.00;99.90;;;;;;5073823;28;20047;-60
2023/03/09 08:18:12;;;;;;;22.27;11.80;;;2.00;99.90;;;;;;5079576;28;20044;-62
2023/03/09 08:20:38;;;;;;;21.15;10.98;;;2.10;99.90;;;;;;5084834;28;20028;-62
2023/03/09 08:23:04;;;;;;;21.63;11.93;;;2.10;99.90;;;;;;5083315;28;20588;-62
2023/03/09 08:25:30;;;;;;;22.83;12.52;;;2.30;99.90;;;;;;5082240;28;20094;-62
2023/03/09 08:27:56;;;;;;;18.75;10.45;;;2.40;99.90;;;;;;5082471;28;20044;-62
2023/03/09 08:30:22;;;;;;;23.17;12.00;;;2.50;99.90;;;;;;5077790;28;20089;-63
2023/03/09 08:32:49;;;;;;;18.98;9.90;;;2.60;99.90;;;;;;5069638;28;20040;-62
2023/03/09 08:35:16;;;;;;;22.23;11.85;;;2.70;99.90;;;;;;5083610;28;20051;-61
2023/03/09 08:37:42;;;;;;;18.95;10.15;;;2.80;99.90;;;;;;5077521;28;20036;-62
2023/03/09 08:40:08;;;;;;;19.23;10.55;;;2.80;99.90;;;;;;5077414;28;20510;-62
2023/03/09 08:42:34;;;;;;;16.60;9.88;;;2.90;99.90;;;;;;5075374;28;20066;-61
2023/03/09 08:45:00;;;;;;;20.70;11.43;;;2.90;99.90;;;;;;5083646;28;20046;-62
2023/03/09 08:47:26;;;;;;;18.13;9.63;;;2.90;99.90;;;;;;5080709;28;20076;-61
2023/03/09 08:49:52;;;;;;;19.00;10.02;;;2.80;99.90;;;;;;5078213;28;20071;-61
2023/03/09 08:52:18;;;;;;;18.52;10.35;;;2.70;99.90;;;;;;5074983;28;20553;-61
2023/03/09 08:54:43;;;;;;;19.73;11.02;;;2.60;99.90;;;;;;5080601;28;20032;-61
2023/03/09 08:57:09;;;;;;;17.75;10.20;;;2.40;99.90;;;;;;5077749;28;20048;-61
2023/03/09 08:59:35;;;;;;;18.88;11.15;;;2.30;99.90;;;;;;5082998;28;20349;-62
2023/03/09 09:02:00;;;;;;;20.15;11.40;;;2.20;99.90;;;;;;5078687;28;20106;-62
2023/03/09 09:04:26;;;;;;;20.23;10.68;;;2.20;99.90;;;;;;5081088;28;20131;-62
2023/03/09 09:06:52;;;;;;;20.15;10.90;;;2.20;99.90;;;;;;5082517;28;20127;-61
2023/03/09 09:09:18;;;;;;;21.90;11.90;;;2.20;99.90;;;;;;5079841;28;20040;-61
2023/03/09 09:11:43;;;;;;;23.35;11.30;;;2.20;99.90;;;;;;5076754;28;20040;-62
2023/03/09 09:14:09;;;;;;;22.38;11.38;;;2.20;99.90;;;;;;5081461;28;20038;-62
2023/03/09 09:16:34;;;;;;;23.10;12.32;;;2.40;99.90;;;;;;5073641;28;20097;-62
2023/03/09 09:19:00;;;;;;;21.42;11.95;;;2.60;99.90;;;;;;5080293;28;20041;-63
2023/03/09 09:21:28;;;;;;;22.38;11.77;;;2.80;99.90;;;;;;5083831;28;20078;-63
2023/03/09 09:23:54;;;;;;;24.05;12.02;;;3.10;99.90;;;;;;5081194;28;20087;-62
2023/03/09 09:26:20;;;;;;;24.77;11.30;;;3.20;99.90;;;;;;5079044;28;20340;-61
2023/03/09 09:28:46;;;;;;;21.58;11.43;;;3.20;99.90;;;;;;5063402;28;20032;-62
2023/03/09 09:31:16;;;;;;;18.35;10.73;;;3.20;99.90;;;;;;5062252;28;20040;-62
2023/03/09 09:33:42;;;;;;;20.45;11.25;;;3.20;99.90;;;;;;5063704;28;20135;-62
2023/03/09 09:36:14;;;;;;;20.70;10.90;;;3.10;99.90;;;;;;5063612;28;20700;-62
2023/03/09 09:38:41;;;;;;;21.50;11.43;;;3.10;99.90;;;;;;5067226;28;20127;-63
2023/03/09 09:41:47;;;;;;;21.10;11.43;;;3.00;99.90;;;;;;5075855;28;20322;-62
2023/03/09 09:44:22;;;;;;;21.67;12.82;;;3.00;99.90;;;;;;5018341;28;20560;-62
2023/03/09 09:46:51;;;;;;;19.50;11.15;;;3.00;99.90;;;;;;5003439;28;20045;-61
2023/03/09 09:49:23;;;;;;;20.25;11.77;;;2.80;99.90;;;;;;5047716;28;20117;-62
2023/03/09 09:52:29;;;;;;;24.02;12.63;;;2.80;99.90;;;;;;5073028;28;20530;-61
2023/03/09 09:55:25;;;;;;;20.08;11.98;;;2.80;99.90;;;;;;5068986;28;20657;-62
2023/03/09 09:58:09;;;;;;;24.58;13.05;;;2.90;99.90;;;;;;5067082;28;20091;-61
2023/03/09 10:00:42;;;;;;;25.92;12.77;;;2.90;99.90;;;;;;5071174;28;20092;-63
2023/03/09 10:03:24;;;;;;;22.65;13.07;;;3.10;99.90;;;;;;5082182;28;20039;-61
2023/03/09 10:06:16;;;;;;;22.30;12.65;;;3.30;99.90;;;;;;5083696;28;20040;-62
2023/03/09 10:08:45;;;;;;;21.13;12.30;;;3.20;99.90;;;;;;5082269;28;20522;-61
2023/03/09 10:11:22;;;;;;;21.15;12.30;;;3.10;99.90;;;;;;5069268;28;20048;-62
2023/03/09 10:14:26;;;;;;;20.30;12.05;;;3.30;99.90;;;;;;5062845;28;20415;-63
2023/03/09 10:17:12;;;;;;;18.95;11.75;;;3.60;99.90;;;;;;5062237;28;20055;-63
2023/03/09 10:19:39;;;;;;;22.50;12.00;;;3.70;99.90;;;;;;5067167;28;20040;-61
2023/03/09 10:22:13;;;;;;;22.13;11.32;;;3.80;99.90;;;;;;5072483;28;20449;-63
2023/03/09 10:24:45;;;;;;;21.65;11.45;;;3.80;99.90;;;;;;5082404;28;20048;-62
2023/03/09 10:27:24;;;;;;;20.73;11.32;;;3.80;99.90;;;;;;5077112;28;20686;-63
2023/03/09 10:30:00;;;;;;;19.45;11.55;;;3.80;99.90;;;;;;5072796;28;20051;-63
2023/03/09 10:32:25;;;;;;;20.55;12.90;;;3.90;99.90;;;;;;5077280;28;20040;-63
2023/03/09 10:35:18;;;;;;;20.42;12.40;;;3.90;99.90;;;;;;5073607;28;20036;-62
2023/03/09 10:37:46;;;;;;;21.88;12.00;;;3.90;99.90;;;;;;5068467;28;20036;-63
2023/03/09 10:40:22;;;;;;;22.27;12.88;;;4.00;99.90;;;;;;5080920;28;20040;-63
2023/03/09 10:42:47;;;;;;;19.67;11.90;;;3.90;99.90;;;;;;5049003;28;20040;-63
2023/03/09 10:45:21;;;;;;;18.00;11.38;;;4.00;99.90;;;;;;5063163;28;20048;-63
2023/03/09 10:47:51;;;;;;;21.20;11.57;;;4.00;99.90;;;;;;5068860;28;20354;-63
2023/03/09 10:50:17;;;;;;;17.52;11.13;;;4.10;99.90;;;;;;5071672;28;20101;-63
2023/03/09 10:52:42;;;;;;;18.65;10.15;;;4.20;99.90;;;;;;5082872;28;20055;-62
2023/03/09 10:55:44;;;;;;;17.23;10.05;;;4.20;99.90;;;;;;5069367;28;20040;-62
2023/03/09 10:58:17;;;;;;;17.35;10.02;;;4.20;99.90;;;;;;5039168;28;20048;-63
2023/03/09 11:00:58;;;;;;;18.80;10.73;;;4.20;99.90;;;;;;5061890;28;20470;-63
2023/03/09 11:03:30;;;;;;;20.17;10.63;;;4.10;99.90;;;;;;5061598;28;20128;-63
2023/03/09 11:06:08;;;;;;;20.38;11.50;;;4.00;99.90;;;;;;5062712;28;20040;-62
2023/03/09 11:08:33;;;;;;;19.42;11.48;;;4.00;99.90;;;;;;5061777;28;20040;-63
2023/03/09 11:11:05;;;;;;;16.95;10.57;;;4.10;99.90;;;;;;5063198;28;20043;-61
2023/03/09 11:13:32;;;;;;;16.48;10.13;;;4.20;99.90;;;;;;5083799;28;20643;-61
2023/03/09 11:16:09;;;;;;;19.05;10.13;;;4.00;99.90;;;;;;5074557;28;20037;-63
2023/03/09 11:18:34;;;;;;;18.25;10.32;;;3.90;99.90;;;;;;5076484;28;20615;-62
2023/03/09 11:21:00;;;;;;;16.88;10.48;;;3.80;99.90;;;;;;5086141;28;20111;-62
2023/03/09 11:23:35;;;;;;;17.42;10.13;;;3.80;99.90;;;;;;5079352;28;20538;-63
2023/03/09 11:26:03;;;;;;;18.20;10.45;;;3.90;99.90;;;;;;5072285;28;20078;-63
2023/03/09 11:28:45;;;;;;;19.63;11.40;;;4.00;99.90;;;;;;5089127;28;20122;-63
2023/03/09 11:31:17;;;;;;;20.45;11.57;;;4.10;99.90;;;;;;5071326;28;20065;-62
2023/03/09 11:33:43;;;;;;;17.65;8.95;;;4.30;99.90;;;;;;5082323;28;20062;-62
2023/03/09 11:36:35;;;;;;;18.00;9.73;;;4.30;99.90;;;;;;5083715;28;20044;-63
2023/03/09 11:39:03;;;;;;;15.65;9.35;;;4.50;99.90;;;;;;5057785;28;20273;-63
2023/03/09 11:41:37;;;;;;;16.35;9.40;;;4.70;99.90;;;;;;5065435;28;20043;-62
2023/03/09 11:44:12;;;;;;;16.58;9.77;;;4.80;99.90;;;;;;5067950;28;20271;-63
2023/03/09 11:46:39;;;;;;;27.10;10.30;;;4.90;99.90;;;;;;5069130;28;20044;-61
2023/03/09 11:49:18;;;;;;;18.92;11.15;;;5.00;99.90;;;;;;5079901;28;20044;-63
2023/03/09 11:51:47;;;;;;;16.67;9.10;;;5.10;99.90;;;;;;5084897;28;20036;-63
2023/03/09 11:54:18;;;;;;;15.45;9.43;;;5.10;99.90;;;;;;5083073;28;20523;-62
2023/03/09 11:56:46;;;;;;;19.17;9.73;;;5.00;99.90;;;;;;5081752;28;20250;-63
2023/03/09 11:59:21;;;;;;;15.25;9.50;;;4.90;99.90;;;;;;5080090;28;20052;-62
2023/03/09 12:01:56;;;;;;;15.68;9.68;;;4.70;99.90;;;;;;5081229;28;20036;-63
2023/03/09 12:04:22;;;;;;;19.15;10.70;;;4.70;99.90;;;;;;5083018;28;20040;-63
2023/03/09 12:07:00;;;;;;;17.73;10.02;;;4.70;99.90;;;;;;5085275;28;20407;-63
2023/03/09 12:09:51;;;;;;;15.98;8.93;;;4.50;99.90;;;;;;5081231;28;20039;-63
2023/03/09 12:12:27;;;;;;;18.90;11.40;;;4.30;99.90;;;;;;5072425;28;20059;-63
2023/03/09 12:15:13;;;;;;;19.98;11.25;;;4.10;99.90;;;;;;5065313;28;20066;-62
2023/03/09 12:17:57;;;;;;;18.00;10.57;;;3.90;99.90;;;;;;5063868;28;20400;-62
2023/03/09 12:20:25;;;;;;;20.63;11.47;;;3.80;99.90;;;;;;5064457;28;20093;-62
2023/03/09 12:22:51;;;;;;;18.23;10.52;;;3.70;99.90;;;;;;5064128;28;20446;-63
2023/03/09 12:25:20;;;;;;;16.90;10.20;;;3.80;99.90;;;;;;5066084;28;20213;-63
2023/03/09 12:27:54;;;;;;;16.50;10.13;;;3.80;99.90;;;;;;5076051;28;20048;-62
2023/03/09 12:30:22;;;;;;;17.17;10.10;;;3.80;99.90;;;;;;5082250;28;20048;-62
2023/03/09 12:32:48;;;;;;;17.88;10.50;;;3.80;99.90;;;;;;5077679;28;20391;-63
2023/03/09 12:35:37;;;;;;;18.48;11.30;;;3.90;99.90;;;;;;5065019;28;20040;-63
2023/03/09 12:38:35;;;;;;;18.60;11.18;;;3.90;99.90;;;;;;5064395;28;20146;-62
2023/03/09 12:41:00;;;;;;;19.23;10.55;;;3.80;99.90;;;;;;5050887;28;20109;-63
2023/03/09 12:43:26;;;;;;;18.55;11.32;;;3.80;99.90;;;;;;5064416;28;20888;-61
2023/03/09 12:45:51;;;;;;;21.17;11.32;;;3.80;99.90;;;;;;5067290;28;20044;-63